El Campo, TX (77437)

3:04 AM CDT on September 04, 2015 (GMT -0500)
FM1160 | | Change Station
CLOSE
Current Station
Personal Weather Station
Location: Louise, TX
Elevation: 105 ft
Nearby Weather Stations

Elev 105 ft 29.20 °N, 96.40 °W | Updated 5 minutes ago

Clear
Clear
75.2 °F
Feels Like 73 °F
N
0.0
Wind Variable Wind from NE
Gusts 0.0 mph

Today
High -- | Low -- °F
--% Chance of Precip.
Yesterday
High -- | Low -- °F
Precip. -- in
7:04 AM 7:43 PM
Waning Gibbous, 62% visible
Pressure 29.90 in
Visibility 1.5 miles
Clouds
Heat Index 73 °F
Dew Point 74 °F
Humidity 96%
Rainfall Not available.
Snow Depth Not available.
UV Not available.
Pollen 6.60 out of 12
Air Quality Not available.
Flu Activity Not available.
METAR KARM 040755Z AUTO 00000KT 1 1/2SM BR VV007 23/22 A2990 RMK AO2 T02300224
Pressure 29.90 in
Visibility 1.5 miles
Clouds
Heat Index 73 °F
Dew Point 74 °F
Humidity 96%
Rainfall Not available.
Snow Depth Not available.
UV Not available.
Pollen 6.60 out of 12
Air Quality Not available.
Flu Activity Not available.
METAR KARM 040755Z AUTO 00000KT 1 1/2SM BR VV007 23/22 A2990 RMK AO2 T02300224

10-Day Weather Forecast

×

Almanac

Astronomy

Sep. 04, 2015 Rise Set
Actual Time
Civil Twilight
Nautical Twilight
Astronomical Twilight
Moon
Length of Visible Light
Length of Day
Tomorrow will be .
, % of the Moon is Illuminated

Today's Extremes

State Highs State Lows

Community

WunderPhotos

Upload Photos

1,852,141 photos uploaded!

WunderBlogs® & News

Nearby

Air Quality

  Air Quality AQ Index Pollutant
Not available.

Snow Depth

Station Depth Elevation

Earthquake Activity

City Distance Mag. Time & Date
Minimum magnitude displayed is 2.5.

Coastal Water Temperatures

Place Temperature

Stations

Nearby Weather Stations

Station Location Temp. Windchill Dew Point Humidity Wind Precip. Elev Updated Type